KAPC/APC METAR and TAF weather

Enter ICAO airport designator
Station Type Date Time Source
KAPC METAR 2020/01/20 15:54 UTC NOAA

KAPC 201554Z 09006KT 7SM CLR 07/04 A3005 RMK AO2 SLP166 T00720044


Station Type Date Time Source
KAPC Decoded METAR 2020/01/20 15:54 UTC NOAA

NAPA COUNTY AIRPORT, CA, United States (KAPC) 38-12N 122-17W 13M
Jan 20, 2020 - 10:54 AM EST / 2020.01.20 1554 UTC
Wind: from the E (090 degrees) at 7 MPH (6 KT):0
Visibility: 7 mile(s):0
Sky conditions: clear
Temperature: 45.0 F (7.2 C)
Dew Point: 39.9 F (4.4 C)
Relative Humidity: 82%
Pressure (altimeter): 30.05 in. Hg (1017 hPa)
ob: KAPC 201554Z 09006KT 7SM CLR 07/04 A3005 RMK AO2 SLP166 T00720044
cycle: 16

Station Type Date Time Source
KAPC TAF 2016/02/08 18:39 UTC NOAA

TAF KAPC 081738Z 0818/0918 08008KT P6SM SKC
FM081900 09012KT P6SM SKC
FM090000 07007KT P6SM SKC
FM090600 04004KT P6SM SKC

Example: see airport list